createdAt,value
2019-04-02T00:00:35.401Z,9.60
2019-04-02T00:03:09.198Z,8.97
2019-04-02T00:05:43.273Z,9.18
2019-04-02T00:08:16.988Z,8.83
2019-04-02T00:10:52.077Z,8.53
2019-04-02T00:13:25.593Z,9.20
2019-04-02T00:15:59.329Z,8.23
2019-04-02T00:18:32.986Z,9.00
2019-04-02T00:21:06.641Z,8.53
2019-04-02T00:23:40.485Z,7.23
2019-04-02T00:26:14.781Z,6.73
2019-04-02T00:28:48.654Z,7.00
2019-04-02T00:31:22.309Z,6.77
2019-04-02T00:33:56.090Z,8.03
2019-04-02T00:36:29.738Z,7.33
2019-04-02T00:39:04.437Z,8.07
2019-04-02T00:41:38.002Z,5.40
2019-04-02T00:44:13.631Z,6.63
2019-04-02T00:46:47.007Z,7.30
2019-04-02T00:49:21.418Z,7.60
2019-04-02T00:51:54.882Z,7.37
2019-04-02T00:54:28.677Z,7.40
2019-04-02T00:57:02.328Z,7.17
2019-04-02T00:59:37.321Z,6.77
2019-04-02T01:02:10.968Z,5.83
2019-04-02T01:05:24.679Z,6.87
2019-04-02T01:08:40.058Z,7.15
2019-04-02T01:11:15.370Z,6.57
2019-04-02T01:13:49.262Z,6.67
2019-04-02T01:16:23.112Z,6.60
2019-04-02T01:18:56.677Z,6.20
2019-04-02T01:21:30.454Z,6.77
2019-04-02T01:24:03.777Z,7.43
2019-04-02T01:26:37.349Z,7.90
2019-04-02T01:29:19.499Z,8.27
2019-04-02T01:31:53.217Z,7.63
2019-04-02T01:34:26.983Z,7.03
2019-04-02T01:37:00.804Z,7.92
2019-04-02T01:39:34.925Z,7.20
2019-04-02T01:42:08.382Z,7.40
2019-04-02T01:45:23.652Z,6.50
2019-04-02T01:48:47.952Z,5.33
2019-04-02T01:54:36.263Z,3.57
2019-04-02T01:57:09.892Z,3.73
2019-04-02T01:59:45.395Z,3.97
2019-04-02T02:02:19.259Z,4.33
2019-04-02T02:04:53.341Z,4.20
2019-04-02T02:07:26.841Z,4.72
2019-04-02T02:10:00.701Z,4.77
2019-04-02T02:12:34.411Z,4.80
2019-04-02T02:15:09.139Z,4.83
2019-04-02T02:17:44.110Z,6.27
2019-04-02T02:20:17.998Z,5.40
2019-04-02T02:22:51.652Z,6.07
2019-04-02T02:25:25.694Z,5.20
2019-04-02T02:27:59.402Z,4.73
2019-04-02T02:30:33.152Z,4.43
2019-04-02T02:33:07.164Z,4.40
2019-04-02T02:35:41.360Z,3.77
2019-04-02T02:38:14.821Z,3.90
2019-04-02T02:41:42.346Z,4.33
2019-04-02T02:44:15.614Z,4.17
2019-04-02T02:46:49.291Z,3.87
2019-04-02T02:49:22.917Z,4.00
2019-04-02T02:51:56.746Z,4.90
2019-04-02T02:54:30.418Z,4.33
2019-04-02T02:57:04.032Z,4.60
2019-04-02T02:59:39.877Z,4.77
2019-04-02T03:02:13.528Z,4.80
2019-04-02T03:04:48.320Z,5.13
2019-04-02T03:07:23.225Z,4.90
2019-04-02T03:09:58.649Z,4.43
2019-04-02T03:12:32.187Z,3.87
2019-04-02T03:15:09.023Z,4.53
2019-04-02T03:17:42.641Z,5.23
2019-04-02T03:20:16.420Z,4.93
2019-04-02T03:22:50.128Z,4.67
2019-04-02T03:25:23.533Z,4.30
2019-04-02T03:27:57.199Z,4.80
2019-04-02T03:30:33.103Z,4.40
2019-04-02T03:33:08.252Z,4.57
2019-04-02T03:35:41.956Z,4.27
2019-04-02T03:38:16.196Z,4.40
2019-04-02T03:40:49.849Z,4.35
2019-04-02T03:47:39.542Z,4.62
2019-04-02T03:50:14.986Z,4.30
2019-04-02T03:52:48.335Z,4.28
2019-04-02T03:55:23.458Z,4.92
2019-04-02T03:57:57.310Z,4.57
2019-04-02T04:00:32.433Z,4.73
2019-04-02T04:03:06.500Z,4.73
2019-04-02T04:05:40.554Z,4.72
2019-04-02T04:08:14.361Z,4.77
2019-04-02T04:10:53.993Z,4.42
2019-04-02T04:13:27.858Z,4.57
2019-04-02T04:16:01.380Z,4.83
2019-04-02T04:18:34.912Z,5.13
2019-04-02T04:21:08.610Z,4.97
2019-04-02T04:24:06.950Z,4.60
2019-04-02T04:30:11.551Z,5.27
2019-04-02T04:34:23.096Z,4.80
2019-04-02T04:37:00.692Z,4.67
2019-04-02T04:39:21.171Z,5.03
2019-04-02T04:41:55.826Z,5.17
2019-04-02T04:44:31.652Z,5.60
2019-04-02T04:47:05.335Z,5.40
2019-04-02T04:49:39.046Z,5.20
2019-04-02T04:52:14.024Z,5.57
2019-04-02T04:54:47.554Z,5.10
2019-04-02T04:57:22.220Z,4.70
2019-04-02T04:59:55.882Z,5.63
2019-04-02T05:03:19.928Z,5.10
2019-04-02T05:09:25.923Z,5.10
2019-04-02T05:12:00.903Z,5.20
2019-04-02T05:14:37.081Z,5.70
2019-04-02T05:17:13.632Z,5.53
2019-04-02T05:19:50.950Z,5.87
2019-04-02T05:22:23.687Z,5.50
2019-04-02T05:24:57.503Z,5.60
2019-04-02T05:27:31.461Z,5.50
2019-04-02T05:30:06.202Z,6.20
2019-04-02T05:32:40.410Z,5.70
2019-04-02T05:35:14.495Z,5.27
2019-04-02T05:37:50.246Z,5.47
2019-04-02T05:40:23.436Z,5.83
2019-04-02T05:42:57.638Z,5.40
2019-04-02T05:45:31.201Z,5.70
2019-04-02T05:48:04.830Z,5.00
2019-04-02T05:50:38.378Z,5.83
2019-04-02T05:53:13.769Z,5.00
2019-04-02T05:55:53.071Z,5.00
2019-04-02T05:58:26.651Z,5.40
2019-04-02T06:01:02.460Z,5.10
2019-04-02T06:03:36.389Z,5.10
2019-04-02T06:06:09.778Z,5.13
2019-04-02T06:08:43.762Z,5.30
2019-04-02T06:11:17.779Z,4.80
2019-04-02T06:13:51.363Z,5.40
2019-04-02T06:16:24.733Z,5.17
2019-04-02T06:18:58.081Z,5.20
2019-04-02T06:21:31.622Z,5.67
2019-04-02T06:24:05.499Z,5.73
2019-04-02T06:26:39.250Z,5.60
2019-04-02T06:29:19.285Z,5.20
2019-04-02T06:31:54.219Z,5.00
2019-04-02T06:34:28.048Z,5.10
2019-04-02T06:37:02.929Z,5.20
2019-04-02T06:39:36.637Z,5.27
2019-04-02T06:42:13.211Z,4.57
2019-04-02T06:44:46.821Z,4.90
2019-04-02T06:47:23.055Z,4.85
2019-04-02T06:49:56.000Z,5.10
2019-04-02T06:52:29.819Z,4.90
2019-04-02T06:55:05.133Z,4.60
2019-04-02T06:57:41.327Z,4.50
2019-04-02T07:00:14.685Z,4.60
2019-04-02T07:02:48.902Z,4.28
2019-04-02T07:05:22.852Z,4.77
2019-04-02T07:07:58.385Z,4.70
2019-04-02T07:10:43.152Z,5.10
2019-04-02T07:13:07.029Z,4.70
2019-04-02T07:15:40.871Z,4.93
2019-04-02T07:18:14.625Z,5.10
2019-04-02T07:20:48.247Z,5.20
2019-04-02T07:23:22.052Z,5.10
2019-04-02T07:25:57.574Z,5.45
2019-04-02T07:28:31.552Z,5.70
2019-04-02T07:31:06.277Z,5.47
2019-04-02T07:33:43.383Z,5.27
2019-04-02T07:36:17.134Z,5.87
2019-04-02T07:38:52.091Z,5.57
2019-04-02T07:41:26.544Z,6.28
2019-04-02T07:44:00.412Z,5.90
2019-04-02T07:46:34.222Z,6.10
2019-04-02T07:49:08.040Z,6.33
2019-04-02T07:51:42.634Z,5.85
2019-04-02T07:54:16.650Z,6.27
2019-04-02T07:56:50.711Z,6.58
2019-04-02T07:59:26.823Z,5.80
2019-04-02T08:02:01.463Z,5.97
2019-04-02T08:04:35.709Z,6.13
2019-04-02T08:07:09.479Z,5.60
2019-04-02T08:09:44.221Z,5.80
2019-04-02T08:12:18.111Z,5.65
2019-04-02T08:14:52.988Z,5.47
2019-04-02T08:17:27.450Z,6.20
2019-04-02T08:20:01.663Z,6.10
2019-04-02T08:22:35.786Z,6.13
2019-04-02T08:25:14.914Z,6.03
2019-04-02T08:27:49.325Z,5.97
2019-04-02T08:30:23.987Z,6.47
2019-04-02T08:32:58.321Z,5.75
2019-04-02T08:35:33.417Z,5.47
2019-04-02T08:38:08.277Z,5.03
2019-04-02T08:40:43.245Z,5.25
2019-04-02T08:43:18.339Z,5.70
2019-04-02T08:45:52.588Z,4.70
2019-04-02T08:48:27.007Z,5.37
2019-04-02T08:51:00.881Z,4.80
2019-04-02T08:53:35.430Z,5.27
2019-04-02T08:56:09.623Z,5.10
2019-04-02T08:58:51.564Z,4.70
2019-04-02T09:01:20.149Z,5.30
2019-04-02T09:03:54.616Z,4.62
2019-04-02T09:06:28.357Z,5.17
2019-04-02T09:09:02.462Z,5.47
2019-04-02T09:11:38.542Z,5.73
2019-04-02T09:14:13.321Z,5.12
2019-04-02T09:16:50.912Z,5.10
2019-04-02T09:19:26.516Z,5.40
2019-04-02T09:22:00.638Z,4.80
2019-04-02T09:24:34.938Z,4.97
2019-04-02T09:27:09.024Z,4.70
2019-04-02T09:29:49.697Z,4.80
2019-04-02T09:32:35.505Z,4.45
2019-04-02T09:34:59.312Z,4.70
2019-04-02T09:37:33.399Z,4.57
2019-04-02T09:40:09.186Z,5.57
2019-04-02T09:42:44.575Z,4.92
2019-04-02T09:45:19.760Z,5.20
2019-04-02T09:47:54.404Z,5.40
2019-04-02T09:50:28.837Z,5.73
2019-04-02T09:53:03.056Z,5.90
2019-04-02T09:55:48.096Z,6.40
2019-04-02T09:58:14.050Z,5.83
2019-04-02T10:00:48.978Z,6.80
2019-04-02T10:03:24.162Z,6.37
2019-04-02T10:06:00.945Z,6.80
2019-04-02T10:08:35.666Z,7.05
2019-04-02T10:11:10.639Z,7.20
2019-04-02T10:13:45.164Z,8.00
2019-04-02T10:16:19.925Z,7.20
2019-04-02T10:19:17.180Z,7.47
2019-04-02T10:21:30.870Z,7.50
2019-04-02T10:24:05.956Z,8.05
2019-04-02T10:26:39.754Z,8.73
2019-04-02T10:29:14.502Z,8.43
2019-04-02T10:31:48.982Z,7.90
2019-04-02T10:34:23.142Z,9.03
2019-04-02T10:37:00.096Z,8.80
2019-04-02T10:39:36.880Z,9.30
2019-04-02T10:42:11.896Z,9.33
2019-04-02T10:44:50.020Z,8.85
2019-04-02T10:47:24.505Z,8.98
2019-04-02T10:49:58.775Z,9.20
2019-04-02T10:52:33.957Z,9.93
2019-04-02T10:55:09.469Z,10.27
2019-04-02T10:57:43.669Z,10.20
2019-04-02T11:00:20.087Z,10.23
2019-04-02T11:02:53.683Z,10.70
2019-04-02T11:05:29.386Z,11.88
2019-04-02T11:08:03.703Z,9.45
2019-04-02T11:10:37.917Z,10.90
2019-04-02T11:13:12.809Z,11.67
2019-04-02T11:15:52.315Z,10.00
2019-04-02T11:18:27.035Z,10.37
2019-04-02T11:21:07.862Z,10.40
2019-04-02T11:23:38.620Z,10.27
2019-04-02T11:26:13.641Z,10.80
2019-04-02T11:28:48.987Z,11.13
2019-04-02T11:31:26.021Z,11.68
2019-04-02T11:34:01.326Z,11.73
2019-04-02T11:36:36.995Z,11.97
2019-04-02T11:39:15.557Z,12.93
2019-04-02T11:41:52.522Z,13.30
2019-04-02T11:44:28.564Z,12.35
2019-04-02T11:47:03.481Z,12.60
2019-04-02T11:49:39.526Z,12.53
2019-04-02T11:52:14.115Z,13.47
2019-04-02T11:54:49.528Z,12.17
2019-04-02T11:57:27.677Z,13.90
2019-04-02T12:00:03.557Z,14.20
2019-04-02T12:02:40.033Z,14.50
2019-04-02T12:05:21.157Z,14.50
2019-04-02T12:08:14.460Z,14.87
2019-04-02T12:10:40.269Z,13.67
2019-04-02T12:13:14.171Z,14.70
2019-04-02T12:15:50.386Z,15.30
2019-04-02T12:18:24.285Z,13.45
2019-04-02T12:21:00.749Z,13.87
2019-04-02T12:23:35.118Z,13.80
2019-04-02T12:26:09.595Z,14.03
2019-04-02T12:28:44.227Z,14.57
2019-04-02T12:31:19.506Z,15.13
2019-04-02T12:33:54.127Z,14.87
2019-04-02T12:36:30.181Z,14.73
2019-04-02T12:39:06.035Z,14.47
2019-04-02T12:41:43.212Z,13.97
2019-04-02T12:44:17.784Z,15.27
2019-04-02T12:46:52.798Z,14.75
2019-04-02T12:49:29.793Z,14.80
2019-04-02T12:52:09.574Z,15.07
2019-04-02T12:54:48.807Z,14.70
2019-04-02T12:57:26.226Z,15.67
2019-04-02T13:00:01.599Z,17.83
2019-04-02T13:02:42.772Z,18.10
2019-04-02T13:05:17.707Z,19.82
2019-04-02T13:07:52.105Z,18.00
2019-04-02T13:10:26.664Z,16.37
2019-04-02T13:13:01.894Z,15.97
2019-04-02T13:15:36.285Z,15.93
2019-04-02T13:18:10.910Z,17.67
2019-04-02T13:20:45.601Z,17.87
2019-04-02T13:23:20.542Z,17.10
2019-04-02T13:25:55.369Z,20.40
2019-04-02T13:28:30.507Z,21.90
2019-04-02T13:31:08.135Z,23.20
2019-04-02T13:33:47.901Z,23.87
2019-04-02T13:36:24.282Z,28.67
2019-04-02T13:38:59.300Z,29.07
2019-04-02T13:41:33.885Z,23.03
2019-04-02T13:44:08.617Z,22.23
2019-04-02T13:46:43.388Z,24.90
2019-04-02T13:49:17.714Z,29.93
2019-04-02T13:52:00.273Z,26.73
2019-04-02T13:54:34.969Z,25.83
2019-04-02T13:57:08.302Z,26.13
2019-04-02T13:59:43.489Z,27.10
2019-04-02T14:02:18.493Z,24.87
2019-04-02T14:04:53.587Z,25.10
2019-04-02T14:07:28.248Z,25.40
2019-04-02T14:10:02.745Z,25.80
2019-04-02T14:12:38.371Z,29.17
2019-04-02T14:15:13.240Z,28.53
2019-04-02T14:17:47.227Z,28.52
2019-04-02T14:20:34.166Z,26.00
2019-04-02T14:23:27.636Z,25.03
2019-04-02T14:26:03.182Z,24.13
2019-04-02T14:28:37.415Z,26.63
2019-04-02T14:31:11.759Z,24.92
2019-04-02T14:33:47.380Z,23.95
2019-04-02T14:36:22.651Z,25.05
2019-04-02T14:38:59.177Z,24.70
2019-04-02T14:41:33.610Z,25.87
2019-04-02T14:44:07.470Z,24.93
2019-04-02T14:46:41.474Z,25.68
2019-04-02T14:49:15.340Z,24.47
2019-04-02T14:51:49.248Z,26.37
2019-04-02T14:54:24.618Z,24.87
2019-04-02T14:56:58.483Z,26.10
2019-04-02T14:59:32.728Z,27.20
2019-04-02T15:02:06.401Z,28.03
2019-04-02T15:04:40.156Z,28.50
2019-04-02T15:07:14.416Z,27.85
2019-04-02T15:09:50.405Z,27.30
2019-04-02T15:12:24.437Z,31.17
2019-04-02T15:15:01.294Z,30.80
2019-04-02T15:17:36.042Z,29.95
2019-04-02T15:20:10.655Z,30.00
2019-04-02T15:22:44.079Z,30.73
2019-04-02T15:25:18.183Z,30.30
2019-04-02T15:27:52.105Z,33.70
2019-04-02T15:30:25.978Z,33.73
2019-04-02T15:32:59.615Z,34.03
2019-04-02T15:35:34.977Z,34.97
2019-04-02T15:38:07.926Z,34.37
2019-04-02T15:40:41.536Z,33.08
2019-04-02T15:43:16.945Z,33.43
2019-04-02T15:45:50.587Z,33.03
2019-04-02T15:48:27.521Z,29.33
2019-04-02T15:51:00.549Z,30.63
2019-04-02T15:53:34.625Z,29.72
2019-04-02T15:56:08.499Z,30.57
2019-04-02T15:58:41.986Z,31.03
2019-04-02T16:01:16.084Z,29.67
2019-04-02T16:03:49.671Z,29.87
2019-04-02T16:06:24.487Z,29.17
2019-04-02T16:08:58.141Z,30.43
2019-04-02T16:11:31.558Z,30.43
2019-04-02T16:14:04.888Z,29.27
2019-04-02T16:16:39.442Z,31.33
2019-04-02T16:19:14.907Z,30.50
2019-04-02T16:21:48.402Z,30.05
2019-04-02T16:24:22.140Z,29.12
2019-04-02T16:26:55.605Z,30.00
2019-04-02T16:29:29.361Z,28.37
2019-04-02T16:32:02.864Z,27.67
2019-04-02T16:34:38.923Z,27.67
2019-04-02T16:37:13.735Z,28.03
2019-04-02T16:39:45.908Z,28.10
2019-04-02T16:42:21.909Z,26.97
2019-04-02T16:44:56.024Z,27.40
2019-04-02T16:47:29.749Z,27.07
2019-04-02T16:50:03.259Z,27.47
2019-04-02T16:52:38.134Z,26.37
2019-04-02T16:55:13.378Z,26.17
2019-04-02T16:57:47.165Z,27.57
2019-04-02T17:00:22.097Z,26.23
2019-04-02T17:02:55.835Z,24.80
2019-04-02T17:05:31.959Z,24.57
2019-04-02T17:08:06.018Z,25.73
2019-04-02T17:10:39.674Z,24.37
2019-04-02T17:13:14.694Z,23.38
2019-04-02T17:15:48.247Z,24.20
2019-04-02T17:18:21.953Z,23.20
2019-04-02T17:20:56.947Z,24.93
2019-04-02T17:23:30.627Z,24.17
2019-04-02T17:26:05.170Z,23.10
2019-04-02T17:28:38.445Z,22.67
2019-04-02T17:31:11.971Z,22.00
2019-04-02T17:33:45.665Z,20.70
2019-04-02T17:36:19.092Z,20.10
2019-04-02T17:38:52.750Z,21.00
2019-04-02T17:41:26.483Z,19.23
2019-04-02T17:44:00.125Z,19.70
2019-04-02T17:46:33.797Z,19.67
2019-04-02T17:49:07.513Z,18.70
2019-04-02T17:51:41.044Z,18.20
2019-04-02T17:54:14.717Z,18.13
2019-04-02T17:56:48.449Z,17.70
2019-04-02T17:59:23.378Z,18.90
2019-04-02T18:01:58.649Z,18.77
2019-04-02T18:04:42.281Z,17.40
2019-04-02T18:07:06.820Z,18.47
2019-04-02T18:09:40.563Z,17.48
2019-04-02T18:12:14.283Z,18.70
2019-04-02T18:14:48.082Z,18.17
2019-04-02T18:17:21.624Z,17.07
2019-04-02T18:19:55.139Z,17.60
2019-04-02T18:22:28.733Z,17.13
2019-04-02T18:25:02.450Z,17.87
2019-04-02T18:27:35.931Z,15.83
2019-04-02T18:30:10.692Z,15.83
2019-04-02T18:32:45.658Z,16.47
2019-04-02T18:35:38.722Z,16.63
2019-04-02T18:38:12.511Z,14.90
2019-04-02T18:40:46.258Z,15.33
2019-04-02T18:43:19.974Z,16.00
2019-04-02T18:45:53.555Z,15.63
2019-04-02T18:48:27.300Z,15.70
2019-04-02T18:51:01.092Z,15.23
2019-04-02T18:53:34.588Z,15.37
2019-04-02T18:56:10.798Z,14.63
2019-04-02T18:58:43.681Z,15.13
2019-04-02T19:01:18.646Z,14.97
2019-04-02T19:03:51.986Z,15.00
2019-04-02T19:06:25.575Z,13.95
2019-04-02T19:08:59.981Z,14.93
2019-04-02T19:11:34.200Z,14.27
2019-04-02T19:14:07.750Z,13.50
2019-04-02T19:16:42.907Z,13.83
2019-04-02T19:19:16.661Z,13.98
2019-04-02T19:21:50.306Z,13.87
2019-04-02T19:24:25.324Z,13.55
2019-04-02T19:26:59.090Z,13.37
2019-04-02T19:29:32.874Z,12.33
2019-04-02T19:32:06.351Z,12.80
2019-04-02T19:34:40.719Z,13.70
2019-04-02T19:37:15.082Z,12.30
2019-04-02T19:39:49.821Z,11.70
2019-04-02T19:42:23.961Z,12.58
2019-04-02T19:44:57.676Z,9.87
2019-04-02T19:47:31.337Z,11.33
2019-04-02T19:50:05.371Z,9.80
2019-04-02T19:52:39.315Z,9.85
2019-04-02T19:55:13.792Z,8.80
2019-04-02T19:57:49.021Z,8.80
2019-04-02T20:00:22.230Z,8.47
2019-04-02T20:02:56.006Z,9.10
2019-04-02T20:05:32.185Z,8.40
2019-04-02T20:08:05.038Z,9.03
2019-04-02T20:10:41.157Z,8.68
2019-04-02T20:13:14.644Z,8.10
2019-04-02T20:15:48.318Z,8.20
2019-04-02T20:18:21.947Z,8.03
2019-04-02T20:20:55.658Z,8.08
2019-04-02T20:23:30.636Z,8.23
2019-04-02T20:26:05.631Z,8.00
2019-04-02T20:28:39.630Z,8.63
2019-04-02T20:31:13.268Z,8.10
2019-04-02T20:33:46.997Z,7.93
2019-04-02T20:36:24.527Z,8.07
2019-04-02T20:38:58.710Z,7.37
2019-04-02T20:41:31.553Z,8.13
2019-04-02T20:44:05.253Z,7.53
2019-04-02T20:46:39.711Z,7.40
2019-04-02T20:49:13.148Z,7.33
2019-04-02T20:51:46.849Z,7.30
2019-04-02T20:54:21.927Z,7.50
2019-04-02T20:56:55.395Z,7.30
2019-04-02T20:59:29.179Z,7.33
2019-04-02T21:02:02.861Z,8.13
2019-04-02T21:04:36.670Z,7.67
2019-04-02T21:07:10.035Z,7.30
2019-04-02T21:09:43.837Z,7.70
2019-04-02T21:12:17.372Z,7.67
2019-04-02T21:14:50.894Z,7.60
2019-04-02T21:17:25.899Z,8.77
2019-04-02T21:20:00.868Z,7.53
2019-04-02T21:22:34.299Z,6.90
2019-04-02T21:25:09.147Z,6.77
2019-04-02T21:27:42.973Z,6.60
2019-04-02T21:30:16.910Z,6.83
2019-04-02T21:32:50.724Z,6.33
2019-04-02T21:35:24.274Z,6.25
2019-04-02T21:38:00.927Z,6.73
2019-04-02T21:40:35.196Z,6.50
2019-04-02T21:45:53.725Z,7.10
2019-04-02T21:48:27.276Z,6.97
2019-04-02T21:51:01.091Z,7.00
2019-04-02T21:53:34.567Z,7.27
2019-04-02T21:56:08.312Z,6.73
2019-04-02T21:58:44.164Z,7.03
2019-04-02T22:01:38.473Z,7.27
2019-04-02T22:04:12.245Z,7.30
2019-04-02T22:06:46.395Z,7.60
2019-04-02T22:09:20.180Z,8.25
2019-04-02T22:11:53.553Z,7.73
2019-04-02T22:14:27.156Z,8.27
2019-04-02T22:17:00.606Z,8.53
2019-04-02T22:19:34.375Z,8.30
2019-04-02T22:22:09.399Z,8.77
2019-04-02T22:24:43.346Z,9.10
2019-04-02T22:27:19.357Z,8.53
2019-04-02T22:29:53.255Z,8.60
2019-04-02T22:32:26.816Z,8.63
2019-04-02T22:35:01.993Z,8.80
2019-04-02T22:37:35.838Z,9.33
2019-04-02T22:40:09.964Z,9.70
2019-04-02T22:42:43.443Z,8.90
2019-04-02T22:45:18.062Z,9.90
2019-04-02T22:47:54.156Z,9.57
2019-04-02T22:50:26.192Z,9.70
2019-04-02T22:52:59.977Z,10.23
2019-04-02T22:55:34.986Z,12.23
2019-04-02T22:58:09.693Z,10.63
2019-04-02T23:00:43.344Z,11.20
2019-04-02T23:03:18.203Z,11.92
2019-04-02T23:05:52.006Z,11.10
2019-04-02T23:08:25.719Z,11.67
2019-04-02T23:10:59.373Z,12.83
2019-04-02T23:17:03.212Z,11.73
2019-04-02T23:19:36.706Z,10.87
2019-04-02T23:22:10.325Z,13.40
2019-04-02T23:24:43.885Z,10.77
2019-04-02T23:27:18.972Z,11.35
2019-04-02T23:29:52.889Z,11.22
2019-04-02T23:32:28.461Z,11.03
2019-04-02T23:35:02.059Z,12.60
2019-04-02T23:37:35.539Z,10.97
2019-04-02T23:40:11.201Z,16.93
2019-04-02T23:42:44.872Z,12.07
2019-04-02T23:45:18.585Z,11.40
2019-04-02T23:47:52.381Z,11.33
2019-04-02T23:50:26.552Z,11.97
2019-04-02T23:53:01.559Z,13.37
2019-04-02T23:55:35.093Z,14.33
2019-04-02T23:58:08.769Z,12.20
